This is the latest recevied weather packets stored in our database for station/object KC4JIR. If no packets are shown the sender has not sent any weather packets the latest 10 day(s).
| Time | Temp. | Humidity | Pressure | Rain* | Wind** | Luminosity | Snow |
|---|---|---|---|---|---|---|---|
| 1777739478 | 15° C | 99% | 1010.1 hPa | 0 mm | - | 223 W/m² | - |
| 1777739174 | 15° C | 99% | 1010.3 hPa | 0 mm | - | 200 W/m² | - |
| 1777738872 | 15.56° C | 99% | 1010.1 hPa | 0 mm | - | 231 W/m² | - |
| 1777738569 | 15° C | 99% | 1010.1 hPa | 0 mm | - | 189 W/m² | - |
| 1777738266 | 15° C | 99% | 1010.5 hPa | 0 mm | - | 163 W/m² | - |
| 1777737964 | 15° C | 99% | 1010.3 hPa | 0 mm | - | 114 W/m² | - |
| 1777737662 | 15° C | 99% | 1010.6 hPa | 0 mm | - | 109 W/m² | - |
| 1777737360 | 15° C | 99% | 1010.3 hPa | 0 mm | - | 155 W/m² | - |
| 1777737057 | 15° C | 99% | 1010.4 hPa | 0 mm | - | 169 W/m² | - |
| 1777736752 | 14.44° C | 99% | 1010.2 hPa | 0 mm | - | 146 W/m² | - |
| 1777736125 | 13.89° C | 99% | 1010.1 hPa | 0 mm | - | 168 W/m² | - |
| 1777735822 | 14.44° C | 99% | 1010.1 hPa | 0 mm | - | 129 W/m² | - |
| 1777735519 | 15° C | 99% | 1010.4 hPa | 0 mm | - | 132 W/m² | - |
| 1777735217 | 14.44° C | 99% | 1010.1 hPa | 0 mm | - | 175 W/m² | - |
| 1777734913 | 13.89° C | 99% | 1010.1 hPa | 0 mm | - | 155 W/m² | - |
| 1777734611 | 13.89° C | 99% | 1010.1 hPa | 0 mm | - | 153 W/m² | - |
| 1777734308 | 13.89° C | 99% | 1010.1 hPa | 3.05 mm | - | 154 W/m² | - |
| 1777734004 | 13.89° C | 99% | 1010.1 hPa | 1.27 mm | - | 132 W/m² | - |
| 1777733701 | 13.89° C | 99% | 1010.3 hPa | 0 mm | - | 84 W/m² | - |
| 1777733397 | 13.89° C | 99% | 1010.7 hPa | 0 mm | - | 52 W/m² | - |
| 1777733093 | 13.33° C | 99% | 1010.9 hPa | 0 mm | - | 55 W/m² | - |
| 1777732790 | 13.33° C | 99% | 1011 hPa | 0 mm | - | 36 W/m² | - |
| 1777732487 | 13.33° C | 99% | 1010.9 hPa | 0 mm | - | 32 W/m² | - |
| 1777732184 | 13.33° C | 99% | 1010.6 hPa | 0 mm | - | 35 W/m² | - |
| 1777731881 | 13.33° C | 99% | 1010 hPa | 0 mm | - | 73 W/m² | - |
* Rain latest hour (hover to see other rain measurements)
** Current wind speed in m/s (hover to see current wind gust speed)